Time;durP1;ratioP1;P1;durP2;ratioP2;P2;SDS_P1;SDS_P2;PMS_P1;PMS_P2;Temp;Humidity;BMP_temperature;BMP_pressure;BME280_temperature;BME280_humidity;BME280_pressure;Samples;Min_cycle;Max_cycle;Signal;HPM_P1;HPM_P2
2023/12/03 00:00:50;;;;;;;25.88;13.40;;;-0.30;99.90;;;;;;5054067;28;20640;-65
2023/12/03 00:03:17;;;;;;;22.50;14.93;;;-0.40;99.90;;;;;;5054399;28;20186;-63
2023/12/03 00:05:45;;;;;;;20.92;13.10;;;-0.30;99.90;;;;;;5054021;28;20296;-64
2023/12/03 00:08:12;;;;;;;26.25;14.23;;;-0.30;99.90;;;;;;5053811;28;20201;-63
2023/12/03 00:10:39;;;;;;;24.77;14.63;;;-0.30;99.90;;;;;;5055105;28;20542;-63
2023/12/03 00:13:06;;;;;;;22.08;14.55;;;-0.30;99.90;;;;;;5054953;28;20198;-63
2023/12/03 00:15:33;;;;;;;21.30;12.55;;;-0.30;99.90;;;;;;5055422;28;20212;-64
2023/12/03 00:18:00;;;;;;;19.95;13.23;;;-0.30;99.90;;;;;;5054830;28;20222;-65
2023/12/03 00:20:26;;;;;;;21.90;13.20;;;-0.30;99.90;;;;;;5055130;28;20205;-64
2023/12/03 00:22:55;;;;;;;24.05;13.52;;;-0.30;99.90;;;;;;5057828;28;20727;-64
2023/12/03 00:25:21;;;;;;;23.00;12.88;;;-0.30;99.90;;;;;;5062894;28;20215;-64
2023/12/03 00:27:48;;;;;;;23.58;13.30;;;-0.30;99.90;;;;;;5065397;28;20265;-63
2023/12/03 00:30:16;;;;;;;21.40;11.23;;;-0.30;99.90;;;;;;5071102;28;20211;-64
2023/12/03 00:32:42;;;;;;;20.42;12.18;;;-0.30;99.90;;;;;;5071230;28;20263;-64
2023/12/03 00:35:09;;;;;;;21.70;12.25;;;-0.30;99.90;;;;;;5071282;28;20307;-63
2023/12/03 00:37:36;;;;;;;15.30;9.52;;;-0.30;99.90;;;;;;5072741;28;20228;-64
2023/12/03 00:40:05;;;;;;;22.77;12.77;;;-0.30;99.90;;;;;;5073305;28;20205;-63
2023/12/03 00:42:31;;;;;;;20.00;11.18;;;-0.30;99.90;;;;;;5073299;28;20226;-64
2023/12/03 00:44:58;;;;;;;25.27;13.57;;;-0.30;99.90;;;;;;5073595;28;20289;-63
2023/12/03 00:47:25;;;;;;;16.88;11.35;;;-0.30;99.90;;;;;;5073333;28;20198;-64
2023/12/03 00:49:52;;;;;;;20.48;12.55;;;-0.30;99.90;;;;;;5074469;28;20212;-64
2023/12/03 00:52:18;;;;;;;21.27;12.50;;;-0.30;99.90;;;;;;5073789;28;20228;-64
2023/12/03 00:54:45;;;;;;;19.47;10.63;;;-0.40;99.90;;;;;;5072939;28;20220;-64
2023/12/03 00:57:12;;;;;;;21.33;12.32;;;-0.40;99.90;;;;;;5070801;28;20403;-64
2023/12/03 00:59:39;;;;;;;18.08;11.80;;;-0.40;99.90;;;;;;5073636;28;20193;-62
2023/12/03 01:02:05;;;;;;;18.17;11.25;;;-0.30;99.90;;;;;;5072919;28;20233;-64
2023/12/03 01:04:32;;;;;;;18.25;12.00;;;-0.40;99.90;;;;;;5072787;28;20216;-64
2023/12/03 01:06:59;;;;;;;17.10;11.93;;;-0.40;99.90;;;;;;5071654;28;20208;-64
2023/12/03 01:09:30;;;;;;;19.25;11.43;;;-0.30;99.90;;;;;;5071578;28;20197;-64
2023/12/03 01:11:57;;;;;;;16.58;11.20;;;-0.30;99.90;;;;;;5069572;28;20226;-64
2023/12/03 01:14:26;;;;;;;19.10;11.20;;;-0.30;99.90;;;;;;5066953;28;20209;-65
2023/12/03 01:16:52;;;;;;;22.60;11.38;;;-0.30;99.90;;;;;;5070395;28;20205;-65
2023/12/03 01:19:19;;;;;;;15.88;10.55;;;-0.30;99.90;;;;;;5072081;28;20209;-64
2023/12/03 01:21:46;;;;;;;20.67;11.30;;;-0.20;99.90;;;;;;5073170;28;20229;-64
2023/12/03 01:24:13;;;;;;;20.33;11.75;;;-0.30;99.90;;;;;;5072672;28;20220;-64
2023/12/03 01:26:39;;;;;;;18.90;11.80;;;-0.20;99.90;;;;;;5075087;28;20198;-64
2023/12/03 01:29:06;;;;;;;20.45;11.30;;;-0.20;99.90;;;;;;5070266;28;20550;-64
2023/12/03 01:31:34;;;;;;;19.58;12.02;;;-0.20;99.90;;;;;;5072989;28;20217;-64
2023/12/03 01:34:01;;;;;;;23.33;13.70;;;-0.20;99.90;;;;;;5074233;28;20201;-64
2023/12/03 01:36:28;;;;;;;24.65;13.30;;;-0.20;99.90;;;;;;5074329;28;20273;-65
2023/12/03 01:38:54;;;;;;;24.10;13.20;;;-0.20;99.90;;;;;;5065624;28;20221;-64
2023/12/03 01:41:21;;;;;;;26.13;14.90;;;-0.20;99.90;;;;;;5062235;28;20221;-64
2023/12/03 01:43:50;;;;;;;23.70;13.75;;;-0.20;99.90;;;;;;5061195;28;20208;-64
2023/12/03 01:46:17;;;;;;;22.15;13.68;;;-0.20;99.90;;;;;;5059712;28;20198;-63
2023/12/03 01:48:45;;;;;;;24.75;14.25;;;-0.20;99.90;;;;;;5060131;28;20210;-64
2023/12/03 01:51:12;;;;;;;26.90;14.68;;;-0.20;99.90;;;;;;5060678;28;20222;-64
2023/12/03 01:53:39;;;;;;;22.92;13.65;;;-0.10;99.90;;;;;;5059878;28;20288;-64
2023/12/03 01:56:07;;;;;;;27.25;15.15;;;-0.10;99.90;;;;;;5057759;28;20201;-64
2023/12/03 01:58:34;;;;;;;24.50;15.45;;;-0.10;99.90;;;;;;5057661;28;20217;-65
2023/12/03 02:01:01;;;;;;;38.15;15.90;;;-0.10;99.90;;;;;;5057991;28;20217;-64
2023/12/03 02:03:29;;;;;;;30.52;16.90;;;-0.10;99.90;;;;;;5058358;28;20531;-63
2023/12/03 02:06:05;;;;;;;31.30;18.23;;;0.00;99.90;;;;;;5057235;28;20202;-63
2023/12/03 02:08:32;;;;;;;30.33;18.67;;;0.00;99.90;;;;;;5057506;28;20628;-63
2023/12/03 02:10:59;;;;;;;36.03;19.20;;;0.00;99.90;;;;;;5056673;28;20202;-65
2023/12/03 02:13:28;;;;;;;37.70;19.40;;;0.00;99.90;;;;;;5057154;28;20225;-65
2023/12/03 02:15:55;;;;;;;35.40;18.50;;;0.00;99.90;;;;;;5056531;28;20205;-64
2023/12/03 02:18:22;;;;;;;32.75;18.60;;;0.00;99.90;;;;;;5057387;28;20229;-64
2023/12/03 02:20:49;;;;;;;35.30;19.67;;;0.00;99.90;;;;;;5055856;28;20227;-64
2023/12/03 02:23:17;;;;;;;37.75;19.85;;;0.00;99.90;;;;;;5055893;28;20201;-64
2023/12/03 02:25:44;;;;;;;32.47;20.27;;;0.00;99.90;;;;;;5056644;28;20201;-63
2023/12/03 02:28:11;;;;;;;32.83;20.55;;;0.00;99.90;;;;;;5056660;28;20193;-64
2023/12/03 02:30:37;;;;;;;33.10;18.77;;;0.00;99.90;;;;;;5056716;28;20208;-64
2023/12/03 02:33:05;;;;;;;37.20;20.13;;;0.00;99.90;;;;;;5056086;28;20209;-65
2023/12/03 02:35:32;;;;;;;37.33;21.27;;;0.00;99.90;;;;;;5055938;28;20205;-64
2023/12/03 02:37:58;;;;;;;35.30;20.20;;;0.00;99.90;;;;;;5055815;28;20218;-64
2023/12/03 02:40:26;;;;;;;40.17;22.15;;;0.00;99.90;;;;;;5055688;28;20205;-63
2023/12/03 02:42:53;;;;;;;33.67;20.05;;;0.00;99.90;;;;;;5055401;28;20345;-64
2023/12/03 02:45:20;;;;;;;40.78;22.25;;;0.00;99.90;;;;;;5055570;28;20201;-64
2023/12/03 02:47:47;;;;;;;38.92;21.67;;;0.00;99.90;;;;;;5055510;28;20198;-65
2023/12/03 02:50:13;;;;;;;41.17;21.38;;;0.00;99.90;;;;;;5055664;28;20229;-63
2023/12/03 02:52:40;;;;;;;41.22;24.52;;;0.00;99.90;;;;;;5054443;28;20222;-63
2023/12/03 02:55:08;;;;;;;41.03;22.63;;;0.10;99.90;;;;;;5055145;28;20204;-64
2023/12/03 02:57:36;;;;;;;38.13;22.90;;;0.00;99.90;;;;;;5056937;28;20243;-64
2023/12/03 03:00:03;;;;;;;39.45;22.58;;;0.10;99.90;;;;;;5057029;28;20578;-64
2023/12/03 03:02:30;;;;;;;45.50;22.77;;;0.00;99.90;;;;;;5057278;28;20238;-64
2023/12/03 03:04:56;;;;;;;39.63;22.95;;;0.00;99.90;;;;;;5057079;28;20197;-64
2023/12/03 03:07:23;;;;;;;43.40;23.95;;;0.00;99.90;;;;;;5057384;28;20198;-64
2023/12/03 03:09:50;;;;;;;46.80;21.75;;;0.00;99.90;;;;;;5056341;28;20202;-65
2023/12/03 03:12:17;;;;;;;43.10;24.35;;;0.10;99.90;;;;;;5055563;28;20221;-64
2023/12/03 03:14:45;;;;;;;43.17;23.85;;;0.00;99.90;;;;;;5055380;28;20210;-64
2023/12/03 03:17:11;;;;;;;42.90;24.00;;;0.00;99.90;;;;;;5055689;28;20202;-64
2023/12/03 03:19:38;;;;;;;44.78;24.50;;;0.00;99.90;;;;;;5055263;28;20225;-64
2023/12/03 03:22:05;;;;;;;40.78;23.83;;;0.00;99.90;;;;;;5055506;28;20217;-64
2023/12/03 03:24:31;;;;;;;41.90;23.77;;;0.10;99.90;;;;;;5065078;28;20202;-64
2023/12/03 03:26:57;;;;;;;46.20;24.57;;;0.10;99.90;;;;;;5071781;28;20224;-65
2023/12/03 03:29:24;;;;;;;42.92;23.80;;;0.10;99.90;;;;;;5065107;28;20207;-64
2023/12/03 03:31:53;;;;;;;44.55;25.48;;;0.10;99.90;;;;;;5058609;28;20228;-63
2023/12/03 03:34:19;;;;;;;48.03;23.55;;;0.10;99.90;;;;;;5064255;28;20205;-64
2023/12/03 03:36:46;;;;;;;48.03;24.80;;;0.10;99.90;;;;;;5061025;28;20559;-64
2023/12/03 03:39:13;;;;;;;45.35;24.02;;;0.00;99.90;;;;;;5056912;28;20221;-62
2023/12/03 03:41:40;;;;;;;40.08;24.00;;;0.00;99.90;;;;;;5055559;28;20695;-64
2023/12/03 03:44:07;;;;;;;45.88;24.85;;;0.00;99.90;;;;;;5056919;28;20259;-64
2023/12/03 03:46:33;;;;;;;44.60;24.45;;;0.00;99.90;;;;;;5055884;28;20301;-65
2023/12/03 03:49:01;;;;;;;40.42;22.45;;;0.00;99.90;;;;;;5055444;28;20198;-63
2023/12/03 03:51:28;;;;;;;45.90;24.23;;;0.00;99.90;;;;;;5055356;28;20253;-64
2023/12/03 03:53:55;;;;;;;45.05;25.45;;;0.00;99.90;;;;;;5055085;28;20207;-64
2023/12/03 03:56:23;;;;;;;49.35;26.48;;;0.00;99.90;;;;;;5054390;28;20619;-63
2023/12/03 03:58:49;;;;;;;45.88;25.13;;;0.00;99.90;;;;;;5054728;28;20228;-63
2023/12/03 04:01:16;;;;;;;44.08;23.60;;;0.00;99.90;;;;;;5054688;28;20244;-65
2023/12/03 04:03:43;;;;;;;41.53;23.08;;;0.00;99.90;;;;;;5054661;28;20658;-63
2023/12/03 04:06:12;;;;;;;48.30;24.30;;;0.00;99.90;;;;;;5055015;28;20201;-62
2023/12/03 04:08:40;;;;;;;41.85;23.70;;;0.00;99.90;;;;;;5053779;28;20205;-64
2023/12/03 04:12:42;;;;;;;47.28;24.27;;;0.00;99.90;;;;;;5091821;27;21152;-63
2023/12/03 04:15:10;;;;;;;39.88;23.13;;;-0.10;99.90;;;;;;5091925;28;20204;-63
2023/12/03 04:17:36;;;;;;;41.97;24.75;;;-0.10;99.90;;;;;;5092370;28;20204;-63
2023/12/03 04:20:04;;;;;;;49.22;25.05;;;-0.10;99.90;;;;;;5093021;28;20205;-64
2023/12/03 04:22:31;;;;;;;49.42;26.00;;;-0.10;99.90;;;;;;5096624;28;20453;-64
2023/12/03 04:24:58;;;;;;;47.70;24.63;;;-0.10;99.90;;;;;;5102665;28;20287;-64
2023/12/03 04:27:26;;;;;;;37.90;22.35;;;-0.10;99.90;;;;;;5097011;28;20201;-64
2023/12/03 04:29:54;;;;;;;44.67;23.60;;;-0.10;99.90;;;;;;5104466;28;20295;-64
2023/12/03 04:32:21;;;;;;;45.20;24.15;;;-0.10;99.90;;;;;;5104561;28;20224;-64
2023/12/03 04:34:47;;;;;;;46.42;25.83;;;-0.10;99.90;;;;;;5104526;28;20215;-64
2023/12/03 04:37:14;;;;;;;47.45;26.20;;;-0.10;99.90;;;;;;5108123;28;20214;-64
2023/12/03 04:39:43;;;;;;;43.58;24.30;;;-0.10;99.90;;;;;;5103768;28;20200;-63
2023/12/03 04:42:10;;;;;;;45.97;25.33;;;-0.10;99.90;;;;;;5099353;28;20212;-64
2023/12/03 04:44:37;;;;;;;44.50;24.15;;;-0.10;99.90;;;;;;5091434;28;20213;-64
2023/12/03 04:47:05;;;;;;;48.55;25.80;;;-0.10;99.90;;;;;;5091455;28;20212;-63
2023/12/03 04:49:32;;;;;;;42.90;21.70;;;-0.10;99.90;;;;;;5091604;28;20208;-63
2023/12/03 04:51:58;;;;;;;43.67;24.60;;;0.00;99.90;;;;;;5091228;28;20621;-64
2023/12/03 04:54:25;;;;;;;47.47;24.67;;;0.00;99.90;;;;;;5091382;28;20226;-64
2023/12/03 04:56:52;;;;;;;44.60;24.33;;;0.00;99.90;;;;;;5090906;28;20204;-63
2023/12/03 04:59:18;;;;;;;41.70;24.45;;;0.00;99.90;;;;;;5091015;28;20196;-62
2023/12/03 05:01:45;;;;;;;51.10;26.33;;;0.10;99.90;;;;;;5091301;28;20234;-64
2023/12/03 05:04:13;;;;;;;45.53;25.20;;;0.10;99.90;;;;;;5090837;28;20254;-65
2023/12/03 05:06:40;;;;;;;46.15;25.83;;;0.10;99.90;;;;;;5090828;28;20207;-64
2023/12/03 05:09:07;;;;;;;49.08;27.02;;;0.20;99.90;;;;;;5091073;28;20209;-64
2023/12/03 05:11:35;;;;;;;43.25;25.90;;;0.20;99.90;;;;;;5090730;28;20279;-64
2023/12/03 05:14:02;;;;;;;57.53;28.92;;;0.20;99.90;;;;;;5091123;28;20204;-63
2023/12/03 05:16:28;;;;;;;51.83;27.23;;;0.20;99.90;;;;;;5090841;28;20202;-64
2023/12/03 05:18:55;;;;;;;50.47;28.38;;;0.20;99.90;;;;;;5090703;28;20201;-64
2023/12/03 05:21:23;;;;;;;49.90;27.35;;;0.30;99.90;;;;;;5090534;28;20736;-64
2023/12/03 05:23:50;;;;;;;44.08;24.70;;;0.20;99.90;;;;;;5078542;28;20197;-64
2023/12/03 05:26:17;;;;;;;46.22;25.48;;;0.30;99.90;;;;;;5077421;28;20207;-64
2023/12/03 05:28:44;;;;;;;51.50;27.88;;;0.30;99.90;;;;;;5077475;28;20197;-64
2023/12/03 05:31:11;;;;;;;51.08;27.35;;;0.30;99.90;;;;;;5079223;28;20229;-63
2023/12/03 05:33:37;;;;;;;50.78;26.50;;;0.30;99.90;;;;;;5079070;28;20201;-64
2023/12/03 05:36:05;;;;;;;43.75;26.75;;;0.30;99.90;;;;;;5078381;28;20639;-64
2023/12/03 05:38:33;;;;;;;59.13;28.88;;;0.30;99.90;;;;;;5078064;28;20201;-64
2023/12/03 05:41:00;;;;;;;63.35;28.27;;;0.30;99.90;;;;;;5080722;28;20725;-64
2023/12/03 05:43:27;;;;;;;48.92;28.10;;;0.30;99.90;;;;;;5085705;28;20198;-65
2023/12/03 05:45:53;;;;;;;53.17;28.45;;;0.30;99.90;;;;;;5090887;28;20201;-64
2023/12/03 05:48:21;;;;;;;52.05;29.17;;;0.30;99.90;;;;;;5091367;28;20206;-63
2023/12/03 05:50:48;;;;;;;55.10;28.50;;;0.30;99.90;;;;;;5086470;28;20258;-63
2023/12/03 05:53:14;;;;;;;53.80;29.27;;;0.30;99.90;;;;;;5081378;28;20681;-63
2023/12/03 05:55:43;;;;;;;59.92;31.35;;;0.40;99.90;;;;;;5080298;28;20697;-64
2023/12/03 05:58:10;;;;;;;53.25;28.33;;;0.40;99.90;;;;;;5079850;28;20204;-63
2023/12/03 06:00:37;;;;;;;61.53;30.48;;;0.40;99.90;;;;;;5078808;28;20200;-65
2023/12/03 06:03:03;;;;;;;48.28;27.27;;;0.40;99.90;;;;;;5077524;28;20367;-64
2023/12/03 06:05:30;;;;;;;57.30;29.00;;;0.40;99.90;;;;;;5077602;28;20671;-64
2023/12/03 06:07:57;;;;;;;52.95;28.95;;;0.40;99.90;;;;;;5077665;28;20204;-64
2023/12/03 06:10:24;;;;;;;48.78;26.88;;;0.40;99.90;;;;;;5077624;28;20573;-63
2023/12/03 06:12:52;;;;;;;55.92;28.67;;;0.40;99.90;;;;;;5076954;28;20618;-64
2023/12/03 06:15:18;;;;;;;59.28;31.02;;;0.40;99.90;;;;;;5076279;28;20215;-62
2023/12/03 06:17:45;;;;;;;66.93;33.53;;;0.40;99.90;;;;;;5076140;28;20201;-63
2023/12/03 06:20:12;;;;;;;60.75;29.92;;;0.40;99.90;;;;;;5076126;28;20197;-63
2023/12/03 06:22:39;;;;;;;60.80;29.85;;;0.50;99.90;;;;;;5077418;28;20217;-65
2023/12/03 06:25:08;;;;;;;59.55;29.92;;;0.40;99.90;;;;;;5080063;28;20201;-63
2023/12/03 06:27:35;;;;;;;58.08;31.23;;;0.50;99.90;;;;;;5078243;28;20208;-64
2023/12/03 06:30:04;;;;;;;57.63;30.52;;;0.50;99.90;;;;;;5077544;28;20208;-62
2023/12/03 06:32:30;;;;;;;62.42;31.77;;;0.50;99.90;;;;;;5077200;28;20231;-63
2023/12/03 06:34:57;;;;;;;63.88;31.33;;;0.50;99.90;;;;;;5076944;28;20289;-63
2023/12/03 06:37:24;;;;;;;59.38;27.35;;;0.50;99.90;;;;;;5078075;28;20214;-62
2023/12/03 06:39:51;;;;;;;57.65;30.92;;;0.50;99.90;;;;;;5078927;28;20292;-62
2023/12/03 06:42:18;;;;;;;64.88;30.95;;;0.50;99.90;;;;;;5079312;28;20217;-62
2023/12/03 06:44:44;;;;;;;64.82;30.45;;;0.50;99.90;;;;;;5076429;28;20379;-63
2023/12/03 06:47:12;;;;;;;66.10;31.65;;;0.50;99.90;;;;;;5080013;28;20204;-63
2023/12/03 06:49:42;;;;;;;54.67;29.85;;;0.50;99.90;;;;;;5079907;28;20197;-63
2023/12/03 06:52:08;;;;;;;66.60;32.25;;;0.50;99.90;;;;;;5080240;28;20240;-63
2023/12/03 06:54:35;;;;;;;57.33;29.70;;;0.50;99.90;;;;;;5080939;28;20205;-62
2023/12/03 06:57:02;;;;;;;58.03;31.38;;;0.50;99.90;;;;;;5079577;28;20197;-62
2023/12/03 06:59:29;;;;;;;59.95;32.55;;;0.50;99.90;;;;;;5084662;28;20227;-62
2023/12/03 07:01:55;;;;;;;60.28;30.50;;;0.50;99.90;;;;;;5082259;28;20217;-63
2023/12/03 07:04:23;;;;;;;68.80;32.20;;;0.50;99.90;;;;;;5079891;28;20207;-62
2023/12/03 07:06:50;;;;;;;53.85;29.00;;;0.50;99.90;;;;;;5079492;28;20209;-62
2023/12/03 07:09:17;;;;;;;63.55;30.10;;;0.50;99.90;;;;;;5078921;28;20197;-62
2023/12/03 07:11:44;;;;;;;52.53;29.38;;;0.50;99.90;;;;;;5077037;28;20233;-63
2023/12/03 07:14:11;;;;;;;62.67;32.60;;;0.50;99.90;;;;;;5076468;28;20212;-62
2023/12/03 07:16:37;;;;;;;54.47;30.35;;;0.50;99.90;;;;;;5077631;28;20201;-63
2023/12/03 07:19:04;;;;;;;52.33;31.15;;;0.50;99.90;;;;;;5078156;28;20208;-62
2023/12/03 07:21:32;;;;;;;61.90;31.48;;;0.50;99.90;;;;;;5082067;28;20221;-62
2023/12/03 07:23:59;;;;;;;51.05;28.70;;;0.50;99.90;;;;;;5080958;28;20207;-63
2023/12/03 07:26:26;;;;;;;54.95;30.10;;;0.50;99.90;;;;;;5080237;28;20201;-62
2023/12/03 07:28:53;;;;;;;54.00;29.92;;;0.50;99.90;;;;;;5075926;28;20579;-63
2023/12/03 07:31:19;;;;;;;56.55;26.88;;;0.50;99.90;;;;;;5080000;28;20229;-63
2023/12/03 07:33:46;;;;;;;60.40;31.77;;;0.50;99.90;;;;;;5081781;28;20193;-63
2023/12/03 07:36:13;;;;;;;59.05;31.60;;;0.50;99.90;;;;;;5085007;28;20212;-63
2023/12/03 07:38:41;;;;;;;56.60;30.13;;;0.50;99.90;;;;;;5079664;28;20197;-62
2023/12/03 07:41:10;;;;;;;61.28;32.88;;;0.50;99.90;;;;;;5080998;28;20221;-63
2023/12/03 07:43:37;;;;;;;53.95;29.45;;;0.50;99.90;;;;;;5081892;28;20201;-62
2023/12/03 07:46:04;;;;;;;62.00;31.20;;;0.50;99.90;;;;;;5078586;28;20200;-64
2023/12/03 07:48:31;;;;;;;57.20;29.83;;;0.50;99.90;;;;;;5078319;28;20207;-63
2023/12/03 07:50:58;;;;;;;52.15;29.20;;;0.50;99.90;;;;;;5077896;28;20203;-62
2023/12/03 07:53:25;;;;;;;53.80;29.50;;;0.60;99.90;;;;;;5078855;28;20229;-63
2023/12/03 07:55:53;;;;;;;52.58;27.92;;;0.60;99.90;;;;;;5081419;28;20205;-62
2023/12/03 07:58:20;;;;;;;53.15;28.73;;;0.60;99.90;;;;;;5078331;28;20273;-62
2023/12/03 08:00:46;;;;;;;60.42;31.02;;;0.60;99.90;;;;;;5082049;28;20667;-63
2023/12/03 08:03:13;;;;;;;53.85;28.40;;;0.60;99.90;;;;;;5087675;28;20193;-63
2023/12/03 08:05:40;;;;;;;53.40;27.55;;;0.60;99.90;;;;;;5086195;28;20211;-62
2023/12/03 08:08:07;;;;;;;50.10;26.35;;;0.60;99.90;;;;;;5080534;28;20201;-63
2023/12/03 08:10:34;;;;;;;53.25;26.60;;;0.60;99.90;;;;;;5079091;28;20211;-63
2023/12/03 08:13:02;;;;;;;53.38;27.67;;;0.60;99.90;;;;;;5077722;28;20243;-63
2023/12/03 08:15:29;;;;;;;49.20;27.02;;;0.70;99.90;;;;;;5078951;28;20211;-63
2023/12/03 08:17:56;;;;;;;50.97;27.38;;;0.60;99.90;;;;;;5080506;28;20200;-63
2023/12/03 08:20:22;;;;;;;57.08;27.52;;;0.70;99.90;;;;;;5078155;28;20231;-63
2023/12/03 08:22:49;;;;;;;53.65;28.33;;;0.70;99.90;;;;;;5084022;28;20227;-63
2023/12/03 08:25:16;;;;;;;45.60;25.95;;;0.70;99.90;;;;;;5079889;28;20208;-62
2023/12/03 08:27:43;;;;;;;47.67;26.58;;;0.80;99.90;;;;;;5076944;28;20693;-63
2023/12/03 08:30:12;;;;;;;47.13;26.40;;;0.80;99.90;;;;;;5082308;28;20197;-62
2023/12/03 08:32:39;;;;;;;49.90;27.40;;;0.80;99.90;;;;;;5078548;28;20312;-62
2023/12/03 08:35:06;;;;;;;41.50;26.17;;;0.80;99.90;;;;;;5075057;28;20208;-63
2023/12/03 08:37:33;;;;;;;56.17;28.90;;;0.90;99.90;;;;;;5075622;28;20203;-63
2023/12/03 08:40:00;;;;;;;53.08;27.77;;;0.90;99.90;;;;;;5076824;28;20296;-63
2023/12/03 08:42:27;;;;;;;53.92;28.58;;;0.90;99.90;;;;;;5073371;28;20703;-63
2023/12/03 08:44:54;;;;;;;51.92;26.30;;;0.90;99.90;;;;;;5073802;28;20667;-62
2023/12/03 08:47:22;;;;;;;56.60;28.83;;;0.80;99.90;;;;;;5073675;28;20204;-63
2023/12/03 08:49:49;;;;;;;46.83;24.55;;;0.90;99.90;;;;;;5073851;28;20209;-62
2023/12/03 08:52:16;;;;;;;58.13;28.25;;;0.90;99.90;;;;;;5074089;28;20225;-64
2023/12/03 08:54:43;;;;;;;51.58;27.08;;;0.90;99.90;;;;;;5074118;28;20216;-64
2023/12/03 08:57:09;;;;;;;60.58;29.50;;;0.90;99.90;;;;;;5075394;28;20201;-66
2023/12/03 08:59:38;;;;;;;54.95;27.65;;;0.90;99.90;;;;;;5077939;28;20200;-64
2023/12/03 09:02:05;;;;;;;54.97;27.13;;;0.90;99.90;;;;;;5078034;28;20263;-66
2023/12/03 09:04:33;;;;;;;52.65;25.50;;;0.90;99.90;;;;;;5078134;28;20200;-65
2023/12/03 09:07:00;;;;;;;61.05;30.05;;;0.90;99.90;;;;;;5078807;28;20201;-65
2023/12/03 09:09:27;;;;;;;50.53;25.88;;;0.90;99.90;;;;;;5078198;28;20197;-63
2023/12/03 09:11:53;;;;;;;56.53;27.65;;;0.90;99.90;;;;;;5077740;28;20730;-64
2023/12/03 09:14:20;;;;;;;49.15;26.30;;;0.90;99.90;;;;;;5078120;28;20224;-64
2023/12/03 09:16:47;;;;;;;56.15;26.55;;;0.90;99.90;;;;;;5077446;28;20674;-64
2023/12/03 09:19:14;;;;;;;57.08;26.20;;;0.90;99.90;;;;;;5078015;28;20223;-65
2023/12/03 09:21:42;;;;;;;56.85;27.42;;;0.90;99.90;;;;;;5077916;28;20231;-65
2023/12/03 09:24:09;;;;;;;66.57;29.60;;;0.90;99.90;;;;;;5076999;28;20200;-65
2023/12/03 09:26:35;;;;;;;53.63;27.05;;;0.90;99.90;;;;;;5077409;28;20205;-63
2023/12/03 09:29:02;;;;;;;48.83;25.48;;;0.90;99.90;;;;;;5077360;28;20207;-65
2023/12/03 09:31:29;;;;;;;55.95;27.55;;;0.90;99.90;;;;;;5076851;28;20225;-63
2023/12/03 09:33:56;;;;;;;53.90;27.10;;;1.00;99.90;;;;;;5076343;28;20224;-64
2023/12/03 09:36:22;;;;;;;56.72;28.38;;;1.00;99.90;;;;;;5076483;28;20217;-62
2023/12/03 09:38:50;;;;;;;54.85;27.55;;;1.10;99.90;;;;;;5076636;28;20205;-63
2023/12/03 09:41:20;;;;;;;53.25;26.20;;;1.10;99.90;;;;;;5076751;28;20595;-62
2023/12/03 09:43:48;;;;;;;64.07;27.08;;;1.10;99.90;;;;;;5076621;28;20670;-64
2023/12/03 09:46:15;;;;;;;51.47;26.75;;;1.20;99.90;;;;;;5076966;28;20205;-63
2023/12/03 09:48:43;;;;;;;57.10;28.83;;;1.20;99.90;;;;;;5078669;28;20207;-63
2023/12/03 09:51:11;;;;;;;49.60;25.70;;;1.30;99.90;;;;;;5084686;28;20225;-64
2023/12/03 09:53:43;;;;;;;45.88;24.85;;;1.30;99.90;;;;;;5077731;28;20220;-62
2023/12/03 09:56:13;;;;;;;50.95;23.08;;;1.30;99.90;;;;;;5078856;28;20182;-63
2023/12/03 09:58:42;;;;;;;52.25;25.77;;;1.20;99.90;;;;;;5078469;28;20205;-62
2023/12/03 10:01:09;;;;;;;51.63;25.70;;;1.20;99.90;;;;;;5078165;28;20295;-62
2023/12/03 10:03:36;;;;;;;47.33;23.52;;;1.20;99.90;;;;;;5077634;28;20208;-63
2023/12/03 10:06:04;;;;;;;45.90;24.13;;;1.20;99.90;;;;;;5078138;28;20205;-62
2023/12/03 10:08:32;;;;;;;51.95;25.88;;;1.10;99.90;;;;;;5080804;28;20292;-61
2023/12/03 10:11:02;;;;;;;44.67;24.25;;;1.10;99.90;;;;;;5079635;28;20231;-62
2023/12/03 10:13:31;;;;;;;49.80;24.00;;;1.10;99.90;;;;;;5079394;28;20224;-63
2023/12/03 10:15:58;;;;;;;48.55;25.85;;;1.10;99.90;;;;;;5080157;28;20212;-62
2023/12/03 10:18:25;;;;;;;48.03;25.92;;;1.00;99.90;;;;;;5081336;28;20288;-64
2023/12/03 10:21:05;;;;;;;50.83;25.67;;;1.00;99.90;;;;;;5083488;28;20204;-63
2023/12/03 10:23:32;;;;;;;41.17;22.50;;;1.10;99.90;;;;;;5087781;28;20188;-61
2023/12/03 10:26:10;;;;;;;43.22;23.88;;;1.00;99.90;;;;;;5083791;28;20201;-64
2023/12/03 10:28:38;;;;;;;50.75;24.90;;;1.00;99.90;;;;;;5078779;28;20199;-61
2023/12/03 10:31:05;;;;;;;47.85;24.30;;;1.00;99.90;;;;;;5076340;28;20247;-62
2023/12/03 10:33:33;;;;;;;43.40;24.20;;;1.10;99.90;;;;;;5076636;28;20221;-62
2023/12/03 10:36:03;;;;;;;48.40;24.40;;;1.10;99.90;;;;;;5076855;28;20197;-62
2023/12/03 10:38:37;;;;;;;47.72;25.20;;;1.10;99.90;;;;;;5077144;28;20553;-64
2023/12/03 10:41:06;;;;;;;45.75;22.50;;;1.10;99.90;;;;;;5078296;28;20227;-65
2023/12/03 10:43:34;;;;;;;47.97;22.90;;;1.20;99.90;;;;;;5079591;28;20196;-67
2023/12/03 10:46:05;;;;;;;40.92;22.40;;;1.20;99.90;;;;;;5079602;28;20201;-63
2023/12/03 10:48:33;;;;;;;44.97;23.00;;;1.30;99.90;;;;;;5081646;28;20220;-65
2023/12/03 10:51:04;;;;;;;39.88;22.58;;;1.30;99.90;;;;;;5083275;28;20293;-64
2023/12/03 10:53:32;;;;;;;41.45;21.95;;;1.40;99.90;;;;;;5080598;28;20212;-64
2023/12/03 10:56:00;;;;;;;39.03;21.15;;;1.40;99.90;;;;;;5079503;28;20274;-62
2023/12/03 10:58:27;;;;;;;44.63;23.10;;;1.40;99.90;;;;;;5078046;28;20209;-64
2023/12/03 11:01:01;;;;;;;38.13;21.55;;;1.40;99.90;;;;;;5079342;28;20201;-63
2023/12/03 11:03:37;;;;;;;40.53;21.10;;;1.40;99.90;;;;;;5077833;28;20209;-63
2023/12/03 11:06:07;;;;;;;39.65;23.00;;;1.50;99.90;;;;;;5078806;28;20268;-63
2023/12/03 11:08:34;;;;;;;42.63;22.30;;;1.50;99.90;;;;;;5077943;28;20223;-64
2023/12/03 11:11:01;;;;;;;35.65;20.95;;;1.50;99.90;;;;;;5076723;28;20233;-64
2023/12/03 11:13:28;;;;;;;35.05;21.05;;;1.60;99.90;;;;;;5078579;28;20698;-64
2023/12/03 11:15:58;;;;;;;36.25;19.83;;;1.60;99.90;;;;;;5078676;28;20200;-64
2023/12/03 11:18:26;;;;;;;35.90;20.08;;;1.60;99.90;;;;;;5079865;28;20208;-63
2023/12/03 11:21:00;;;;;;;34.22;21.52;;;1.70;99.90;;;;;;5075810;28;20205;-64
2023/12/03 11:23:40;;;;;;;38.45;21.50;;;1.80;99.90;;;;;;5080156;28;20212;-64
2023/12/03 11:26:12;;;;;;;38.50;20.80;;;1.80;99.90;;;;;;5079156;28;20197;-64
2023/12/03 11:28:51;;;;;;;31.98;18.70;;;1.80;99.90;;;;;;5077912;28;20185;-64
2023/12/03 11:31:18;;;;;;;34.13;17.55;;;1.80;99.90;;;;;;5079221;28;20221;-63
2023/12/03 11:33:51;;;;;;;30.65;19.02;;;1.80;99.90;;;;;;5079852;28;20313;-64
2023/12/03 11:36:20;;;;;;;34.28;19.92;;;1.80;99.90;;;;;;5078432;28;20186;-64
2023/12/03 11:38:48;;;;;;;27.52;17.13;;;1.80;99.90;;;;;;5078573;28;20200;-64
2023/12/03 11:41:14;;;;;;;26.17;16.70;;;1.80;99.90;;;;;;5077498;28;20247;-64
2023/12/03 11:43:41;;;;;;;32.00;19.17;;;1.80;99.90;;;;;;5084319;28;20213;-64
2023/12/03 11:46:08;;;;;;;29.67;17.85;;;1.80;99.90;;;;;;5085961;28;20288;-65
2023/12/03 11:48:38;;;;;;;29.52;18.55;;;1.80;99.90;;;;;;5083685;28;20197;-64
2023/12/03 11:51:08;;;;;;;26.02;16.52;;;1.80;99.90;;;;;;5082269;28;20327;-64
2023/12/03 11:54:01;;;;;;;27.67;15.45;;;1.80;99.90;;;;;;5081680;28;20233;-64
2023/12/03 11:56:28;;;;;;;27.90;16.30;;;1.70;99.90;;;;;;5080877;28;20185;-63
2023/12/03 11:58:55;;;;;;;25.65;15.50;;;1.70;99.90;;;;;;5078592;28;20205;-63
2023/12/03 12:01:22;;;;;;;22.20;15.60;;;1.80;99.90;;;;;;5079490;28;20239;-64
2023/12/03 12:03:49;;;;;;;22.52;14.45;;;1.80;99.90;;;;;;5079396;28;20207;-64
2023/12/03 12:06:25;;;;;;;26.95;14.95;;;1.70;99.90;;;;;;5079846;28;20211;-62
2023/12/03 12:08:52;;;;;;;21.23;13.70;;;1.70;99.90;;;;;;5081538;28;20622;-64
2023/12/03 12:11:20;;;;;;;20.38;12.60;;;1.70;99.90;;;;;;5080539;28;20244;-64
2023/12/03 12:13:47;;;;;;;23.15;12.75;;;1.70;99.90;;;;;;5079677;28;20225;-64
2023/12/03 12:16:13;;;;;;;25.40;12.18;;;1.80;99.90;;;;;;5082129;28;20209;-63
2023/12/03 12:18:40;;;;;;;18.42;11.80;;;1.80;99.90;;;;;;5080544;28;20201;-64
2023/12/03 12:21:09;;;;;;;21.20;13.40;;;1.70;99.90;;;;;;5080247;28;20224;-64
2023/12/03 12:23:35;;;;;;;20.15;11.45;;;1.80;99.90;;;;;;5080275;28;20233;-64
2023/12/03 12:26:02;;;;;;;18.75;11.55;;;1.80;99.90;;;;;;5079714;28;20205;-64
2023/12/03 12:28:30;;;;;;;17.00;11.43;;;1.80;99.90;;;;;;5081093;28;20201;-64
2023/12/03 12:30:57;;;;;;;24.92;11.73;;;1.90;99.90;;;;;;5081968;28;20215;-64
2023/12/03 12:33:24;;;;;;;15.48;10.70;;;1.90;99.90;;;;;;5083584;28;20223;-63
2023/12/03 12:35:51;;;;;;;16.58;11.25;;;1.80;99.90;;;;;;5084965;28;20197;-65
2023/12/03 12:38:18;;;;;;;18.65;11.98;;;1.80;99.90;;;;;;5083017;28;20212;-63